Terminal Aerodrome Forecast
Issued by NWS

Home | Current Version | Previous Version | Text Only | Print | Product List | Glossary On
Versions: 1 2 3 4 5 6 7 8 9 10 11 12 13 14 15 16 17 18 19 20 21 22 23 24 25 26 27 28 29 30 31
000
FTUS41 KBOX 202016 AAA
TAFFMH
TAF AMD
KFMH 202016Z 2020/2118 08006KT P6SM SKC
     FM210200 VRB03KT 3SM BR FEW250
     FM210900 03006KT P6SM BKN110
     FM211500 04010KT P6SM BKN090=

USA.gov is the U.S. government's official web portal to all federal, state and local government web resources and services.